createdAt,value
2022-08-14T00:01:03.984Z,101393.94
2022-08-14T00:03:40.436Z,101385.31
2022-08-14T00:06:25.813Z,101385.81
2022-08-14T00:08:54.254Z,101393.50
2022-08-14T00:11:25.860Z,101386.31
2022-08-14T00:13:55.307Z,101386.31
2022-08-14T00:16:41.364Z,101386.81
2022-08-14T00:19:21.351Z,101380.63
2022-08-14T00:21:50.024Z,101387.56
2022-08-14T00:24:23.127Z,101382.34
2022-08-14T00:26:56.639Z,101382.84
2022-08-14T00:29:25.633Z,101385.56
2022-08-14T00:31:53.883Z,101386.34
2022-08-14T00:34:36.777Z,101383.81
2022-08-14T00:37:10.317Z,101386.81
2022-08-14T00:39:37.250Z,101381.34
2022-08-14T00:42:04.800Z,101379.16
2022-08-14T00:44:32.429Z,101381.56
2022-08-14T00:47:05.854Z,101380.63
2022-08-14T00:49:38.232Z,101378.84
2022-08-14T00:52:14.036Z,101383.59
2022-08-14T00:54:44.902Z,101366.25
2022-08-14T00:57:12.204Z,101368.47
2022-08-14T00:59:39.515Z,101364.00
2022-08-14T01:02:06.719Z,101360.81
2022-08-14T01:04:38.019Z,101359.06
2022-08-14T01:07:22.659Z,101353.13
2022-08-14T01:09:54.172Z,101356.59
2022-08-14T01:12:26.309Z,101361.28
2022-08-14T01:14:55.166Z,101358.81
2022-08-14T01:17:49.750Z,101353.63
2022-08-14T01:20:35.908Z,101352.63
2022-08-14T01:23:16.748Z,101345.44
2022-08-14T01:25:51.398Z,101346.94
2022-08-14T01:28:47.314Z,101350.16
2022-08-14T01:31:12.257Z,101347.44
2022-08-14T01:34:00.496Z,101344.22
2022-08-14T01:36:38.060Z,101339.50
2022-08-14T01:39:12.574Z,101333.56
2022-08-14T01:41:42.137Z,101331.31
2022-08-14T01:44:31.256Z,101322.94
2022-08-14T01:47:05.921Z,101328.88
2022-08-14T01:49:35.389Z,101316.72
2022-08-14T01:52:03.680Z,101314.72
2022-08-14T01:54:38.166Z,101317.94
2022-08-14T01:57:06.410Z,101308.31
2022-08-14T01:59:38.045Z,101314.00
2022-08-14T02:02:19.621Z,101307.31
2022-08-14T02:04:56.837Z,101307.56
2022-08-14T02:07:34.845Z,101297.16
2022-08-14T02:10:15.965Z,101303.09
2022-08-14T02:12:54.122Z,101302.84
2022-08-14T02:15:23.932Z,101302.34
2022-08-14T02:17:50.522Z,101300.63
2022-08-14T02:20:23.391Z,101295.94
2022-08-14T02:22:54.506Z,101290.25
2022-08-14T02:25:21.960Z,101294.19
2022-08-14T02:28:23.038Z,101289.72
2022-08-14T02:30:38.180Z,101288.47
2022-08-14T02:33:05.696Z,101292.19
2022-08-14T02:35:32.849Z,101292.44
2022-08-14T02:38:00.977Z,101290.47
2022-08-14T02:40:33.772Z,101291.69
2022-08-14T02:43:02.671Z,101286.75
2022-08-14T02:45:38.348Z,101281.81
2022-08-14T02:49:02.079Z,101277.84
2022-08-14T02:51:00.936Z,101276.88
2022-08-14T02:53:29.412Z,101279.34
2022-08-14T02:56:02.456Z,101276.66
2022-08-14T02:58:30.819Z,101275.41
2022-08-14T03:00:58.756Z,101273.66
2022-08-14T03:03:25.787Z,101273.16
2022-08-14T03:05:54.342Z,101274.16
2022-08-14T03:08:22.480Z,101270.66
2022-08-14T03:10:50.160Z,101273.38
2022-08-14T03:13:20.768Z,101263.50
2022-08-14T03:15:55.572Z,101257.56
2022-08-14T03:18:31.423Z,101252.38
2022-08-14T03:21:06.141Z,101249.16
2022-08-14T03:23:37.914Z,101252.13
2022-08-14T03:26:13.142Z,101239.78
2022-08-14T03:28:48.378Z,101236.81
2022-08-14T03:31:15.591Z,101234.81
2022-08-14T03:33:43.227Z,101230.13
2022-08-14T03:37:38.315Z,101232.84
2022-08-14T03:39:21.689Z,101224.69
2022-08-14T03:41:55.870Z,101228.34
2022-08-14T03:45:18.800Z,101218.50
2022-08-14T03:47:11.828Z,101221.19
2022-08-14T03:49:41.987Z,101222.44
2022-08-14T03:52:37.763Z,101216.25
2022-08-14T03:54:57.397Z,101212.28
2022-08-14T03:57:24.412Z,101216.97
2022-08-14T03:59:51.028Z,101207.59
2022-08-14T04:02:32.674Z,101203.63
2022-08-14T04:05:11.710Z,101207.34
2022-08-14T04:07:39.123Z,101208.09
2022-08-14T04:10:17.463Z,101198.94
2022-08-14T04:12:52.869Z,101200.91
2022-08-14T04:15:21.214Z,101198.44
2022-08-14T04:17:50.210Z,101195.47
2022-08-14T04:20:17.129Z,101190.75
2022-08-14T04:22:55.511Z,101197.44
2022-08-14T04:25:22.579Z,101198.91
2022-08-14T04:28:02.361Z,101193.72
2022-08-14T04:30:32.668Z,101195.72
2022-08-14T04:33:05.388Z,101192.25
2022-08-14T04:35:56.653Z,101185.09
2022-08-14T04:38:41.439Z,101183.34
2022-08-14T04:41:30.354Z,101173.94
2022-08-14T04:43:57.592Z,101179.13
2022-08-14T04:46:55.687Z,101181.13
2022-08-14T04:49:11.593Z,101185.84
2022-08-14T04:51:46.866Z,101175.41
2022-08-14T04:54:22.708Z,101183.09
2022-08-14T04:56:51.000Z,101176.41
2022-08-14T04:59:21.523Z,101177.41
2022-08-14T05:01:53.914Z,101176.66
2022-08-14T05:04:24.691Z,101177.84
2022-08-14T05:06:54.459Z,101173.84
2022-08-14T05:09:23.558Z,101161.22
2022-08-14T05:11:51.580Z,101165.63
2022-08-14T05:14:46.881Z,101171.00
2022-08-14T05:17:05.287Z,101172.09
2022-08-14T05:19:33.592Z,101177.44
2022-08-14T05:22:17.638Z,101175.47
2022-08-14T05:24:50.538Z,101173.94
2022-08-14T05:27:19.874Z,101177.72
2022-08-14T05:29:49.847Z,101176.19
2022-08-14T05:32:16.556Z,101170.16
2022-08-14T05:34:45.876Z,101177.00
2022-08-14T05:37:13.047Z,101176.09
2022-08-14T05:39:42.163Z,101175.06
2022-08-14T05:42:21.369Z,101170.28
2022-08-14T05:44:49.042Z,101169.25
2022-08-14T05:47:16.028Z,101165.16
2022-08-14T05:49:43.775Z,101164.59
2022-08-14T05:52:10.665Z,101164.38
2022-08-14T05:54:44.428Z,101171.31
2022-08-14T05:57:10.854Z,101166.16
2022-08-14T05:59:39.917Z,101167.13
2022-08-14T06:02:11.054Z,101164.56
2022-08-14T06:04:38.658Z,101158.91
2022-08-14T06:07:05.696Z,101161.38
2022-08-14T06:09:36.105Z,101163.88
2022-08-14T06:12:11.797Z,101166.59
2022-08-14T06:14:38.742Z,101165.78
2022-08-14T06:17:05.593Z,101155.75
2022-08-14T06:19:32.087Z,101160.25
2022-08-14T06:21:59.126Z,101154.28
2022-08-14T06:24:26.926Z,101164.69
2022-08-14T06:26:56.706Z,101155.50
2022-08-14T06:29:32.416Z,101161.22
2022-08-14T06:32:48.729Z,101157.34
2022-08-14T06:35:10.862Z,101159.00
2022-08-14T06:37:41.406Z,101163.63
2022-08-14T06:40:16.624Z,101155.59
2022-08-14T06:42:53.038Z,101151.22
2022-08-14T06:45:21.212Z,101162.81
2022-08-14T06:47:53.692Z,101164.09
2022-08-14T06:50:28.098Z,101157.38
2022-08-14T06:52:55.741Z,101155.25
2022-08-14T06:55:25.951Z,101153.03
2022-08-14T06:57:55.000Z,101153.19
2022-08-14T07:00:26.960Z,101151.78
2022-08-14T07:03:13.055Z,101146.56
2022-08-14T07:05:55.922Z,101161.84
2022-08-14T07:08:31.226Z,101165.28
2022-08-14T07:11:01.398Z,101161.09
2022-08-14T07:13:30.379Z,101164.13
2022-08-14T07:15:58.702Z,101161.25
2022-08-14T07:18:28.344Z,101157.16
2022-08-14T07:20:55.391Z,101157.03
2022-08-14T07:23:24.132Z,101154.53
2022-08-14T07:25:52.269Z,101150.34
2022-08-14T07:28:20.531Z,101157.72
2022-08-14T07:30:51.501Z,101153.25
2022-08-14T07:33:20.802Z,101156.88
2022-08-14T07:35:58.447Z,101153.97
2022-08-14T07:38:33.643Z,101155.31
2022-08-14T07:41:02.460Z,101165.88
2022-08-14T07:43:29.746Z,101163.88
2022-08-14T07:45:56.505Z,101163.47
2022-08-14T07:48:25.409Z,101169.53
2022-08-14T07:50:52.945Z,101163.44
2022-08-14T07:53:22.304Z,101162.72
2022-08-14T07:56:00.276Z,101175.28
2022-08-14T07:58:39.033Z,101177.19
2022-08-14T08:01:18.991Z,101167.16
2022-08-14T08:03:52.029Z,101167.47
2022-08-14T08:06:26.462Z,101171.34
2022-08-14T08:09:01.192Z,101159.78
2022-08-14T08:11:34.722Z,101159.59
2022-08-14T08:14:17.470Z,101161.28
2022-08-14T08:16:47.397Z,101164.94
2022-08-14T08:19:19.118Z,101161.06
2022-08-14T08:21:46.937Z,101161.06
2022-08-14T08:24:18.570Z,101162.34
2022-08-14T08:26:47.938Z,101160.34
2022-08-14T08:29:25.046Z,101160.28
2022-08-14T08:31:56.731Z,101155.25
2022-08-14T08:34:29.219Z,101137.03
2022-08-14T08:36:58.294Z,101155.09
2022-08-14T08:39:24.793Z,101146.97
2022-08-14T08:41:57.334Z,101150.78
2022-08-14T08:44:32.972Z,101148.94
2022-08-14T08:47:07.881Z,101146.00
2022-08-14T08:49:43.091Z,101140.13
2022-08-14T08:52:25.012Z,101139.25
2022-08-14T08:54:55.280Z,101132.38
2022-08-14T08:57:22.401Z,101122.81
2022-08-14T08:59:54.823Z,101123.47
2022-08-14T09:02:22.618Z,101122.50
2022-08-14T09:05:02.031Z,101111.44
2022-08-14T09:07:28.509Z,101110.34
2022-08-14T09:09:59.980Z,101103.31
2022-08-14T09:12:31.638Z,101104.56
2022-08-14T09:15:01.701Z,101100.66
2022-08-14T09:17:28.398Z,101100.59
2022-08-14T09:19:55.389Z,101112.25
2022-08-14T09:22:35.347Z,101107.94
2022-08-14T09:25:07.290Z,101093.28
2022-08-14T09:27:35.093Z,101098.28
2022-08-14T09:30:01.697Z,101085.06
2022-08-14T09:32:59.322Z,101072.41
2022-08-14T09:35:56.756Z,101075.34
2022-08-14T09:39:23.001Z,101072.44
2022-08-14T09:42:21.434Z,101065.38
2022-08-14T09:45:12.585Z,101047.28
2022-08-14T09:47:49.030Z,101045.13
2022-08-14T09:50:26.852Z,101042.47
2022-08-14T09:53:04.537Z,101047.81
2022-08-14T09:55:36.797Z,101036.94
2022-08-14T09:58:19.915Z,101036.50
2022-08-14T10:00:53.994Z,101031.19
2022-08-14T10:03:33.843Z,101030.66
2022-08-14T10:06:13.719Z,101033.22
2022-08-14T10:08:51.002Z,101024.66
2022-08-14T10:11:23.568Z,101024.97
2022-08-14T10:13:56.885Z,101022.25
2022-08-14T10:16:33.188Z,101017.06
2022-08-14T10:19:12.827Z,101012.25
2022-08-14T10:23:11.083Z,101010.00
2022-08-14T10:24:47.050Z,100997.50
2022-08-14T10:27:25.126Z,101000.84
2022-08-14T10:29:59.814Z,101001.59
2022-08-14T10:32:29.279Z,100993.91
2022-08-14T10:35:13.585Z,100990.19
2022-08-14T10:37:51.892Z,100987.56
2022-08-14T10:40:38.803Z,100984.38
2022-08-14T10:43:23.866Z,100986.91
2022-08-14T10:46:03.742Z,100985.56
2022-08-14T10:48:55.412Z,100982.22
2022-08-14T10:51:26.725Z,100988.03
2022-08-14T10:53:58.451Z,100974.44
2022-08-14T10:56:35.112Z,100972.91
2022-08-14T10:59:08.479Z,100967.25
2022-08-14T11:01:40.945Z,100962.38
2022-08-14T11:04:20.172Z,100959.94
2022-08-14T11:06:56.190Z,100960.81
2022-08-14T11:09:22.867Z,100957.44
2022-08-14T11:11:56.337Z,100949.97
2022-08-14T11:14:42.549Z,100950.50
2022-08-14T11:17:09.399Z,100950.19
2022-08-14T11:19:37.005Z,100955.19
2022-08-14T11:22:06.432Z,100948.19
2022-08-14T11:24:55.470Z,100946.91
2022-08-14T11:27:20.374Z,100940.16
2022-08-14T11:29:52.499Z,100943.94
2022-08-14T11:32:23.299Z,100935.25
2022-08-14T11:34:53.490Z,100928.97
2022-08-14T11:37:31.641Z,100928.50
2022-08-14T11:40:15.728Z,100932.56
2022-08-14T11:42:59.572Z,100933.94
2022-08-14T11:45:33.104Z,100920.56
2022-08-14T11:49:04.126Z,100915.88
2022-08-14T11:51:23.668Z,100913.22
2022-08-14T11:53:53.592Z,100905.84
2022-08-14T11:56:25.840Z,100901.28
2022-08-14T11:58:57.043Z,100898.88
2022-08-14T12:01:31.299Z,100908.59
2022-08-14T12:04:21.681Z,100909.66
2022-08-14T12:07:00.780Z,100903.63
2022-08-14T12:09:30.104Z,100900.81
2022-08-14T12:11:56.674Z,100907.63
2022-08-14T12:14:30.798Z,100891.81
2022-08-14T12:17:12.084Z,100884.47
2022-08-14T12:19:44.406Z,100890.00
2022-08-14T12:22:12.005Z,100884.66
2022-08-14T12:24:46.986Z,100883.69
2022-08-14T12:27:16.863Z,100884.19
2022-08-14T12:29:53.599Z,100870.19
2022-08-14T12:32:20.040Z,100864.97
2022-08-14T12:34:53.237Z,100860.00
2022-08-14T12:37:29.181Z,100850.63
2022-08-14T12:39:55.895Z,100854.63
2022-08-14T12:42:36.460Z,100840.78
2022-08-14T12:45:08.098Z,100837.06
2022-08-14T12:47:34.845Z,100827.97
2022-08-14T12:50:01.300Z,100826.47
2022-08-14T12:52:43.081Z,100817.31
2022-08-14T12:55:20.967Z,100814.28
2022-08-14T12:57:49.340Z,100821.78
2022-08-14T13:00:24.000Z,100815.22
2022-08-14T13:02:55.075Z,100814.91
2022-08-14T13:05:29.961Z,100820.06
2022-08-14T13:07:59.351Z,100811.69
2022-08-14T13:10:46.874Z,100803.38
2022-08-14T13:13:16.209Z,100794.25
2022-08-14T13:15:45.443Z,100786.66
2022-08-14T13:18:14.506Z,100791.63
2022-08-14T13:20:51.823Z,100787.28
2022-08-14T13:23:31.519Z,100795.41
2022-08-14T13:25:59.399Z,100798.44
2022-08-14T13:28:33.148Z,100782.13
2022-08-14T13:31:11.186Z,100785.06
2022-08-14T13:33:40.822Z,100790.13
2022-08-14T13:36:08.868Z,100778.34
2022-08-14T13:38:35.694Z,100783.00
2022-08-14T13:41:02.916Z,100770.63
2022-08-14T13:43:31.675Z,100763.88
2022-08-14T13:46:03.944Z,100753.59
2022-08-14T13:48:33.486Z,100753.75
2022-08-14T13:51:10.637Z,100747.31
2022-08-14T13:53:49.494Z,100736.47
2022-08-14T13:56:37.243Z,100743.66
2022-08-14T13:59:03.974Z,100731.91
2022-08-14T14:01:43.755Z,100726.63
2022-08-14T14:04:19.576Z,100725.44
2022-08-14T14:06:49.012Z,100712.25
2022-08-14T14:09:32.519Z,100713.97
2022-08-14T14:12:06.294Z,100696.75
2022-08-14T14:14:51.524Z,100701.97
2022-08-14T14:17:24.396Z,100712.69
2022-08-14T14:19:52.205Z,100711.63
2022-08-14T14:22:35.506Z,100708.09
2022-08-14T14:25:05.546Z,100718.56
2022-08-14T14:27:41.548Z,100715.66
2022-08-14T14:30:46.504Z,100717.53
2022-08-14T14:33:05.041Z,100710.69
2022-08-14T14:35:34.768Z,100708.16
2022-08-14T14:38:07.096Z,100695.03
2022-08-14T14:40:52.591Z,100699.28
2022-08-14T14:43:22.186Z,100693.06
2022-08-14T14:45:50.470Z,100696.56
2022-08-14T14:48:19.567Z,100680.38
2022-08-14T14:50:46.465Z,100683.41
2022-08-14T14:53:13.689Z,100677.66
2022-08-14T14:55:43.068Z,100681.78
2022-08-14T14:58:30.560Z,100685.47
2022-08-14T15:01:03.576Z,100687.50
2022-08-14T15:03:36.035Z,100689.00
2022-08-14T15:06:03.756Z,100689.53
2022-08-14T15:08:49.756Z,100690.50
2022-08-14T15:11:17.717Z,100675.56
2022-08-14T15:13:53.270Z,100679.88
2022-08-14T15:16:20.538Z,100673.91
2022-08-14T15:18:49.046Z,100674.53
2022-08-14T15:21:15.781Z,100684.94
2022-08-14T15:23:44.509Z,100676.72
2022-08-14T15:26:24.388Z,100678.88
2022-08-14T15:29:05.202Z,100666.88
2022-08-14T15:31:36.559Z,100668.97
2022-08-14T15:34:46.050Z,100654.91
2022-08-14T15:37:12.643Z,100659.63
2022-08-14T15:39:41.405Z,100656.22
2022-08-14T15:42:14.823Z,100654.56
2022-08-14T15:44:57.434Z,100637.16
2022-08-14T15:47:29.076Z,100628.22
2022-08-14T15:49:59.642Z,100632.56
2022-08-14T15:52:32.395Z,100633.81
2022-08-14T15:55:08.419Z,100620.63
2022-08-14T15:57:36.022Z,100627.81
2022-08-14T16:00:40.853Z,100632.63
2022-08-14T16:03:12.641Z,100612.25
2022-08-14T16:05:42.068Z,100616.28
2022-08-14T16:08:26.684Z,100619.91
2022-08-14T16:10:56.101Z,100615.97
2022-08-14T16:13:41.522Z,100621.66
2022-08-14T16:16:34.989Z,100613.28
2022-08-14T16:19:12.171Z,100619.34
2022-08-14T16:21:40.716Z,100614.75
2022-08-14T16:24:28.472Z,100610.53
2022-08-14T16:27:00.480Z,100598.34
2022-08-14T16:29:29.132Z,100602.84
2022-08-14T16:31:58.041Z,100602.56
2022-08-14T16:34:44.997Z,100587.09
2022-08-14T16:37:12.595Z,100584.91
2022-08-14T16:39:41.706Z,100581.72
2022-08-14T16:42:38.126Z,100581.38
2022-08-14T16:44:58.684Z,100579.22
2022-08-14T16:47:25.548Z,100578.81
2022-08-14T16:50:08.478Z,100586.38
2022-08-14T16:52:44.276Z,100585.16
2022-08-14T16:55:22.422Z,100585.56
2022-08-14T16:57:58.934Z,100580.28
2022-08-14T17:00:43.212Z,100582.34
2022-08-14T17:03:11.898Z,100576.56
2022-08-14T17:05:43.838Z,100567.75
2022-08-14T17:08:32.487Z,100566.56
2022-08-14T17:11:10.772Z,100561.63
2022-08-14T17:13:57.832Z,100566.31
2022-08-14T17:16:30.959Z,100563.38
2022-08-14T17:19:00.655Z,100564.84
2022-08-14T17:21:31.605Z,100556.69
2022-08-14T17:24:01.136Z,100561.50
2022-08-14T17:26:55.589Z,100554.09
2022-08-14T17:29:29.495Z,100554.09
2022-08-14T17:32:28.288Z,100558.47
2022-08-14T17:35:01.947Z,100550.28
2022-08-14T17:37:34.257Z,100563.91
2022-08-14T17:40:15.939Z,100554.91
2022-08-14T17:42:53.394Z,100548.22
2022-08-14T17:45:26.945Z,100550.47
2022-08-14T17:47:59.016Z,100566.00
2022-08-14T17:51:01.882Z,100560.31
2022-08-14T17:53:30.605Z,100560.34
2022-08-14T17:56:03.087Z,100560.41
2022-08-14T17:58:30.953Z,100559.34
2022-08-14T18:01:12.841Z,100554.09
2022-08-14T18:03:50.405Z,100563.78
2022-08-14T18:06:38.211Z,100560.63
2022-08-14T18:09:24.622Z,100554.28
2022-08-14T18:11:57.906Z,100559.66
2022-08-14T18:14:33.025Z,100560.59
2022-08-14T18:17:13.574Z,100556.47
2022-08-14T18:19:44.151Z,100559.63
2022-08-14T18:22:24.055Z,100558.59
2022-08-14T18:24:58.452Z,100558.66
2022-08-14T18:27:35.878Z,100559.47
2022-08-14T18:30:31.664Z,100557.03
2022-08-14T18:32:55.375Z,100557.56
2022-08-14T18:35:45.637Z,100548.84
2022-08-14T18:38:55.228Z,100554.06
2022-08-14T18:41:37.119Z,100551.44
2022-08-14T18:44:04.953Z,100545.09
2022-08-14T18:47:08.716Z,100550.34
2022-08-14T18:49:54.390Z,100546.38
2022-08-14T18:52:22.358Z,100546.81
2022-08-14T18:54:51.702Z,100549.59
2022-08-14T18:57:26.637Z,100551.41
2022-08-14T18:59:53.669Z,100547.78
2022-08-14T19:02:30.423Z,100541.78
2022-08-14T19:04:58.826Z,100547.44
2022-08-14T19:07:25.679Z,100546.00
2022-08-14T19:10:03.447Z,100548.19
2022-08-14T19:13:01.182Z,100549.47
2022-08-14T19:15:31.370Z,100544.72
2022-08-14T19:18:14.662Z,100549.50
2022-08-14T19:20:48.084Z,100546.75
2022-08-14T19:23:18.659Z,100545.09
2022-08-14T19:25:55.099Z,100544.72
2022-08-14T19:28:31.470Z,100537.44
2022-08-14T19:31:42.171Z,100534.84
2022-08-14T19:34:09.366Z,100542.91
2022-08-14T19:37:05.900Z,100539.59
2022-08-14T19:39:54.010Z,100539.22
2022-08-14T19:42:28.203Z,100534.06
2022-08-14T19:44:57.503Z,100535.34
2022-08-14T19:47:41.103Z,100528.78
2022-08-14T19:50:38.283Z,100532.59
2022-08-14T19:53:11.357Z,100539.53
2022-08-14T19:55:45.650Z,100537.34
2022-08-14T19:58:12.982Z,100534.41
2022-08-14T20:00:52.783Z,100536.97
2022-08-14T20:03:24.032Z,100530.72
2022-08-14T20:06:01.350Z,100538.72
2022-08-14T20:11:01.207Z,100534.69
2022-08-14T20:11:58.460Z,100531.38
2022-08-14T20:14:29.768Z,100535.69
2022-08-14T20:17:01.938Z,100533.69
2022-08-14T20:19:37.957Z,100530.97
2022-08-14T20:22:36.828Z,100533.69
2022-08-14T20:25:10.706Z,100530.19
2022-08-14T20:27:40.831Z,100531.31
2022-08-14T20:30:37.588Z,100541.91
2022-08-14T20:33:07.732Z,100532.41
2022-08-14T20:35:48.965Z,100528.00
2022-08-14T20:38:31.457Z,100527.81
2022-08-14T20:41:05.715Z,100528.56
2022-08-14T20:43:53.343Z,100525.50
2022-08-14T20:46:29.474Z,100532.06
2022-08-14T20:49:02.558Z,100520.75
2022-08-14T20:51:43.514Z,100528.97
2022-08-14T20:54:34.544Z,100527.47
2022-08-14T20:57:08.864Z,100533.53
2022-08-14T20:59:40.277Z,100530.59
2022-08-14T21:02:30.409Z,100529.59
2022-08-14T21:05:17.253Z,100529.63
2022-08-14T21:07:50.853Z,100522.72
2022-08-14T21:10:33.118Z,100532.25
2022-08-14T21:14:18.771Z,100534.44
2022-08-14T21:15:57.651Z,100525.28
2022-08-14T21:18:33.030Z,100527.28
2022-08-14T21:21:06.768Z,100527.47
2022-08-14T21:23:54.048Z,100521.25
2022-08-14T21:26:50.767Z,100526.69
2022-08-14T21:29:11.248Z,100520.50
2022-08-14T21:31:38.995Z,100523.38
2022-08-14T21:34:30.947Z,100519.56
2022-08-14T21:36:52.906Z,100514.44
2022-08-14T21:39:19.554Z,100520.13
2022-08-14T21:41:50.332Z,100515.91
2022-08-14T21:44:43.313Z,100513.31
2022-08-14T21:47:12.014Z,100513.78
2022-08-14T21:49:40.128Z,100513.78
2022-08-14T21:52:50.429Z,100513.25
2022-08-14T21:55:00.723Z,100509.00
2022-08-14T21:57:55.904Z,100513.34
2022-08-14T22:00:35.326Z,100513.66
2022-08-14T22:03:06.002Z,100514.75
2022-08-14T22:05:32.680Z,100507.63
2022-08-14T22:07:59.301Z,100510.34
2022-08-14T22:10:29.035Z,100508.81
2022-08-14T22:13:00.386Z,100502.28
2022-08-14T22:15:27.919Z,100507.34
2022-08-14T22:17:55.045Z,100510.16
2022-08-14T22:20:24.405Z,100504.88
2022-08-14T22:22:56.176Z,100506.66
2022-08-14T22:25:33.962Z,100502.59
2022-08-14T22:28:05.722Z,100498.22
2022-08-14T22:30:33.424Z,100501.06
2022-08-14T22:33:00.507Z,100499.63
2022-08-14T22:35:28.241Z,100488.28
2022-08-14T22:38:01.595Z,100494.41
2022-08-14T22:41:05.519Z,100487.69
2022-08-14T22:43:31.306Z,100503.16
2022-08-14T22:45:58.243Z,100492.97
2022-08-14T22:48:29.346Z,100487.00
2022-08-14T22:50:56.004Z,100481.75
2022-08-14T22:53:23.667Z,100477.34
2022-08-14T22:55:52.272Z,100486.00
2022-08-14T22:58:19.452Z,100474.50
2022-08-14T23:00:57.314Z,100477.81
2022-08-14T23:03:24.392Z,100473.44
2022-08-14T23:05:52.882Z,100472.16
2022-08-14T23:08:59.070Z,100474.00
2022-08-14T23:11:10.082Z,100471.13
2022-08-14T23:13:40.816Z,100475.50
2022-08-14T23:16:10.609Z,100473.72
2022-08-14T23:18:46.977Z,100474.50
2022-08-14T23:21:24.427Z,100470.09
2022-08-14T23:23:54.962Z,100468.63
2022-08-14T23:26:48.507Z,100470.81
2022-08-14T23:29:09.271Z,100457.31
2022-08-14T23:31:38.372Z,100460.63
2022-08-14T23:34:07.706Z,100462.41
2022-08-14T23:36:52.628Z,100454.97
2022-08-14T23:39:19.630Z,100457.69
2022-08-14T23:41:53.047Z,100452.06
2022-08-14T23:44:22.386Z,100443.25
2022-08-14T23:46:49.530Z,100448.72
2022-08-14T23:49:21.278Z,100446.53
2022-08-14T23:52:49.660Z,100442.88
2022-08-14T23:54:49.141Z,100427.34
2022-08-14T23:57:19.158Z,100436.63
2022-08-14T23:59:54.228Z,100433.91
